CheckWX is a tool to help pilots better visualize weather data.  It is not intended as a substitute for an official pre-flight weather briefing.

06:30:39 UTC

KSUU METAR
Travis AFB Airport
Fairfield, California, USA
Current

33 mins ago

KSUU 230558Z AUTO 19006KT 10SM CLR 15/10 A2998 RMK AO2 SLP159 T01500096 10301 20147 50006 $
Observed
Apr-23 @ 05:58 UTC
Wind
  • 190° at 6 KTS
Visibility
10 SM
Flight Rules
VFR
Cloud Levels
  • Clear skies
Temperature
15°C / 59°F
Dewpoint
10°C / 50°F
Humidity
72%
Altimeter
29.98" Hg
Pressure
1015.22 hPa
Previous

2 hours ago

KSUU 230458Z AUTO 21006KT 10SM CLR 15/09 A2998 RMK AO2 SLP159 T01480089 $
Observed
Apr-23 @ 04:58 UTC
Wind
  • 210° at 6 KTS
Visibility
10 SM
Flight Rules
VFR
Cloud Levels
  • Clear skies
Temperature
15°C / 59°F
Dewpoint
C / 48°F
Humidity
68%
Altimeter
29.98" Hg
Pressure
1015.22 hPa
Previous

3 hours ago

KSUU 230358Z AUTO 22007KT 10SM CLR 17/09 A2997 RMK AO2 SLP155 T01720091 $
Observed
Apr-23 @ 03:58 UTC
Wind
  • 220° at 7 KTS
Visibility
10 SM
Flight Rules
VFR
Cloud Levels
  • Clear skies
Temperature
17°C / 63°F
Dewpoint
C / 48°F
Humidity
59%
Altimeter
29.97" Hg
Pressure
1014.92 hPa